Share

Kekaha, HI

Barking Sands PMRF (PHBK) Elev 13 ft | 22.02 °N, 159.79 °W | Change Station

Current weather conditions updated 9 minutes ago

Clear
Clear
82 °F
Feels Like 84 °F
N
10
Wind Variable Wind from NW
Sunrise 6:17 AM
Sunset 6:59 PM
Moon Waning Gibbous

Today is forecast to be Warmer than yesterday.

Pressure 30.08 in
Visibility 10.0 miles
Clouds Clear
Heat Index 84 °F
Dew Point 65 °F
Humidity 56%
Rainfall 0.00 in
Snow Depth Not available.
UV 11 out of 16
Pollen Not available.
Air Quality Not available.
Flu Activity Sporadic
METAR PHBK 172356Z AUTO 32009KT 10SM CLR 28/18 A3007 RMK AO2 SLP184 T02780183 10283 20233 56018 TSNO

More Conditions Fewer Conditions

Pressure 30.08 in
Visibility 10.0 miles
Clouds Clear
Heat Index 84 °F
Dew Point 65 °F
Humidity 56%
Rainfall 0.00 in
Snow Depth Not available.
UV 11 out of 16
Pollen Not available.
Air Quality Not available.
Flu Activity Sporadic
METAR PHBK 172356Z AUTO 32009KT 10SM CLR 28/18 A3007 RMK AO2 SLP184 T02780183 10283 20233 56018 TSNO

More Conditions Fewer Conditions

10-Day Forecast

Almanac

Astronomy

Apr. 17, 2014 Rise Set
Actual Time 6:17 AM HST 6:59 PM HST
Civil Twilight 5:54 AM HST 7:22 PM HST
Nautical Twilight 5:27 AM HST 7:49 PM HST
Astronomical Twilight 5:00 AM HST 8:16 PM HST
Moon 9:42 PM HST (4/17) 8:11 AM HST (4/17)
Length of Visible Light 13h 27m
Length of Day
12h 42m
Tomorrow will be 1m 11s longer.
Waning Gibbous, 92% of the Moon is Illuminated
Today
Waning Gibbous
Apr 22
Last Quarter
Apr 29
New
May 6
First Quarter
May 14
Full

Today's Extremes

State Highs State Lows

Community

  • Morning Light
    Morning Light
  • New Day
    New Day
  • Lake Michigan Sunrise
    Lake Michigan Sunrise
  • sunset from izmir, narlıdere
    sunset from izmir, narlıdere
  • oregon cherry
    oregon cherry

WunderPhotos

Upload Photos

1,702,183 photos uploaded!

WunderBlogs® & News

Nearby

Snow Depth

Station Depth Elevation
No new snow has been reported.

Coastal Water Temperatures

Place Temperature
No Stations Reporting

Earthquake Activity

City Distance Mag. Time & Date
No recent earthquake activity has been reported nearby.
Minimum magnitude displayed is 2.5.

Nearby Weather Stations

Station Location Temp. Heat Index Dew Point Humidity Wind Precip. Elev Updated Type
Na Pali Properties on Kauai, Hanalei, HI 81.5 °F 86 °F 71 °F 70% NE  at  12.1 mph 0.00 in / hr 23 ft 2:05 PM HST Rapid Fire
Pooku, Princeville, HI 76.4 °F 77 °F 70 °F 82% ENE  at  2.0 mph 0.00 in / hr 417 ft 2:05 PM HST Rapid Fire
North Shore of Kauai, Princeville, HI 77.3 °F 79 °F 70 °F 78% East  at  5.6 mph 0.00 in / hr 0 ft 2:05 PM HST Rapid Fire
Kalihiwai Ridge, Kilauea, HI 74.3 °F 73 °F 70 °F 87% ENE  at  0.0 mph 0.14 in / hr 325 ft 2:05 PM HST Rapid Fire

Show More Stations Show Fewer Stations

What do you think?

We're not finished. Please let us know what you like, what you don't like, and what you are still missing.